首页
METAR-TAF:

METAR-TAF

机场 :

Malcolm McKinnon Airport

布朗斯维克, 喬治亞, 美国

纬度: 31-09-06N, 经度: 081-23-29W, 海拔: 6米

当前天气观测

该预报发布于29分钟前的22:53 UTC
风速16节,风向东北,有时为22节阵风
温度 17°C
湿度 72%
气压 1018 hPa
能見度: 16.1公里
阴天层高于1700英尺

METAR: KSSI 262253Z AUTO 05016G22KT 10SM OVC017 17/12 A3007 RMK AO2 SLP182 T01670122

时间: 19:22 (23:22 UTC)

预报

该预报发布于5小时和59分钟前的17:23 UTC
预报有效从26日的 18点(UTC)到 27日的 18点(UTC)
风速14节,风向东转东北,有时为24节阵风
能見度: 10公里
散云层高于2500英尺
多云层高于25000英尺
从 26日的 2200点(UTC)
风速17节,风向东北,有时为27节阵风
能見度: 10公里
多云层高于2500英尺
附近有阵雨
从 27日的 0600点(UTC)
风速20节,风向东北,有时为30节阵风
能見度: 10公里
散云层高于2500英尺
阴天层高于3500英尺
从 27日的 1600点(UTC)
风速18节,风向北转东北,有时为28节阵风
能見度: 10公里
散云层高于3000英尺
散云层高于25000英尺

TAF: KSSI 261723Z 2618/2718 06014G24KT P6SM SCT025 BKN250 FM262200 04017G27KT P6SM VCSH BKN025 FM270600 04020G30KT P6SM SCT025 OVC035 FM271600 03018G28KT P6SM SCT030 SCT250

超过4000个机场的气象观测和天气预报(METAR&TAF报告)。

可查询的气象台以黄色和红色小点在地图上表示。

将鼠标移到小点上方,可查看气象台名称。

然后点击查看天气观测和预报。

如需切换地图:点击带黑十字的绿色按钮放大地图;点击带横线的绿色按钮缩小地图;或者点击绿色箭头查看邻近地区的地图。


METAR-TAF: